sensor_id;sensor_type;location;lat;lon;timestamp;P1;durP1;ratioP1;P2;durP2;ratioP2
71914;SDS011;60387;49.994;14.660;2023-03-01T00:00:24;24.80;;;8.00;;
71914;SDS011;60387;49.994;14.660;2023-03-01T00:02:57;22.57;;;8.33;;
71914;SDS011;60387;49.994;14.660;2023-03-01T00:05:30;25.13;;;8.43;;
71914;SDS011;60387;49.994;14.660;2023-03-01T00:08:04;26.30;;;8.37;;
71914;SDS011;60387;49.994;14.660;2023-03-01T00:10:37;21.80;;;8.80;;
71914;SDS011;60387;49.994;14.660;2023-03-01T00:13:10;23.40;;;8.00;;
71914;SDS011;60387;49.994;14.660;2023-03-01T00:15:44;21.43;;;8.00;;
71914;SDS011;60387;49.994;14.660;2023-03-01T00:18:17;25.60;;;7.47;;
71914;SDS011;60387;49.994;14.660;2023-03-01T00:20:54;22.63;;;7.87;;
71914;SDS011;60387;49.994;14.660;2023-03-01T00:23:28;23.42;;;8.60;;
71914;SDS011;60387;49.994;14.660;2023-03-01T00:26:01;27.77;;;9.17;;
71914;SDS011;60387;49.994;14.660;2023-03-01T00:28:38;27.30;;;8.90;;
71914;SDS011;60387;49.994;14.660;2023-03-01T00:31:12;23.57;;;7.63;;
71914;SDS011;60387;49.994;14.660;2023-03-01T00:33:54;22.42;;;7.82;;
71914;SDS011;60387;49.994;14.660;2023-03-01T00:36:30;18.63;;;7.20;;
71914;SDS011;60387;49.994;14.660;2023-03-01T00:39:12;19.47;;;7.20;;
71914;SDS011;60387;49.994;14.660;2023-03-01T00:41:46;22.00;;;7.32;;
71914;SDS011;60387;49.994;14.660;2023-03-01T00:44:20;21.50;;;7.70;;
71914;SDS011;60387;49.994;14.660;2023-03-01T00:46:53;25.90;;;8.23;;
71914;SDS011;60387;49.994;14.660;2023-03-01T00:49:26;23.90;;;7.57;;
71914;SDS011;60387;49.994;14.660;2023-03-01T00:52:00;24.27;;;8.60;;
71914;SDS011;60387;49.994;14.660;2023-03-01T00:54:33;21.30;;;7.83;;
71914;SDS011;60387;49.994;14.660;2023-03-01T00:57:06;21.10;;;7.93;;
71914;SDS011;60387;49.994;14.660;2023-03-01T00:59:39;19.80;;;7.03;;
71914;SDS011;60387;49.994;14.660;2023-03-01T01:02:13;21.13;;;7.47;;
71914;SDS011;60387;49.994;14.660;2023-03-01T01:04:46;23.97;;;7.67;;
71914;SDS011;60387;49.994;14.660;2023-03-01T01:07:20;18.97;;;6.03;;
71914;SDS011;60387;49.994;14.660;2023-03-01T01:09:53;25.60;;;8.43;;
71914;SDS011;60387;49.994;14.660;2023-03-01T01:12:26;20.25;;;7.88;;
71914;SDS011;60387;49.994;14.660;2023-03-01T01:15:00;26.15;;;8.20;;
71914;SDS011;60387;49.994;14.660;2023-03-01T01:17:33;19.70;;;7.03;;
71914;SDS011;60387;49.994;14.660;2023-03-01T01:20:06;23.13;;;8.02;;
71914;SDS011;60387;49.994;14.660;2023-03-01T01:22:40;24.60;;;8.63;;
71914;SDS011;60387;49.994;14.660;2023-03-01T01:25:14;24.57;;;8.73;;
71914;SDS011;60387;49.994;14.660;2023-03-01T01:27:47;23.40;;;8.90;;
71914;SDS011;60387;49.994;14.660;2023-03-01T01:30:20;26.13;;;9.23;;
71914;SDS011;60387;49.994;14.660;2023-03-01T01:32:54;19.60;;;6.93;;
71914;SDS011;60387;49.994;14.660;2023-03-01T01:35:27;21.77;;;8.07;;
71914;SDS011;60387;49.994;14.660;2023-03-01T01:38:00;22.17;;;7.93;;
71914;SDS011;60387;49.994;14.660;2023-03-01T01:40:33;21.00;;;7.50;;
71914;SDS011;60387;49.994;14.660;2023-03-01T01:43:09;17.50;;;6.77;;
71914;SDS011;60387;49.994;14.660;2023-03-01T01:45:51;22.52;;;7.63;;
71914;SDS011;60387;49.994;14.660;2023-03-01T01:48:31;18.20;;;6.67;;
71914;SDS011;60387;49.994;14.660;2023-03-01T01:51:23;20.27;;;6.45;;
71914;SDS011;60387;49.994;14.660;2023-03-01T01:54:00;21.73;;;7.57;;
71914;SDS011;60387;49.994;14.660;2023-03-01T01:56:34;20.77;;;8.07;;
71914;SDS011;60387;49.994;14.660;2023-03-01T01:59:12;18.52;;;6.63;;
71914;SDS011;60387;49.994;14.660;2023-03-01T02:01:47;18.33;;;7.38;;
71914;SDS011;60387;49.994;14.660;2023-03-01T02:04:20;20.47;;;7.27;;
71914;SDS011;60387;49.994;14.660;2023-03-01T02:06:57;26.23;;;8.10;;
71914;SDS011;60387;49.994;14.660;2023-03-01T02:09:52;20.30;;;6.37;;
71914;SDS011;60387;49.994;14.660;2023-03-01T02:12:26;21.85;;;7.93;;
71914;SDS011;60387;49.994;14.660;2023-03-01T02:14:59;22.50;;;7.40;;
71914;SDS011;60387;49.994;14.660;2023-03-01T02:17:33;20.07;;;7.20;;
71914;SDS011;60387;49.994;14.660;2023-03-01T02:23:02;21.30;;;7.78;;
71914;SDS011;60387;49.994;14.660;2023-03-01T02:25:39;25.87;;;9.17;;
71914;SDS011;60387;49.994;14.660;2023-03-01T02:31:06;26.75;;;8.57;;
71914;SDS011;60387;49.994;14.660;2023-03-01T02:33:41;22.03;;;7.93;;
71914;SDS011;60387;49.994;14.660;2023-03-01T02:36:19;24.60;;;8.85;;
71914;SDS011;60387;49.994;14.660;2023-03-01T02:38:56;25.50;;;8.80;;
71914;SDS011;60387;49.994;14.660;2023-03-01T02:41:32;20.83;;;8.60;;
71914;SDS011;60387;49.994;14.660;2023-03-01T02:44:09;26.42;;;8.27;;
71914;SDS011;60387;49.994;14.660;2023-03-01T02:46:53;30.65;;;9.38;;
71914;SDS011;60387;49.994;14.660;2023-03-01T02:49:29;24.73;;;8.23;;
71914;SDS011;60387;49.994;14.660;2023-03-01T02:55:06;23.70;;;8.93;;
71914;SDS011;60387;49.994;14.660;2023-03-01T02:57:42;22.83;;;7.40;;
71914;SDS011;60387;49.994;14.660;2023-03-01T03:00:19;31.92;;;9.45;;
71914;SDS011;60387;49.994;14.660;2023-03-01T03:02:55;29.63;;;8.77;;
71914;SDS011;60387;49.994;14.660;2023-03-01T03:05:29;30.10;;;10.03;;
71914;SDS011;60387;49.994;14.660;2023-03-01T03:08:06;29.42;;;9.55;;
71914;SDS011;60387;49.994;14.660;2023-03-01T03:10:39;23.27;;;8.93;;
71914;SDS011;60387;49.994;14.660;2023-03-01T03:13:13;23.10;;;8.55;;
71914;SDS011;60387;49.994;14.660;2023-03-01T03:15:47;32.72;;;10.25;;
71914;SDS011;60387;49.994;14.660;2023-03-01T03:18:21;27.83;;;10.20;;
71914;SDS011;60387;49.994;14.660;2023-03-01T03:20:56;24.85;;;9.20;;
71914;SDS011;60387;49.994;14.660;2023-03-01T03:23:29;24.63;;;8.53;;
71914;SDS011;60387;49.994;14.660;2023-03-01T03:26:03;24.93;;;7.67;;
71914;SDS011;60387;49.994;14.660;2023-03-01T03:28:37;27.83;;;9.30;;
71914;SDS011;60387;49.994;14.660;2023-03-01T03:31:10;22.05;;;8.00;;
71914;SDS011;60387;49.994;14.660;2023-03-01T03:33:43;22.58;;;8.68;;
71914;SDS011;60387;49.994;14.660;2023-03-01T03:36:17;25.52;;;9.25;;
71914;SDS011;60387;49.994;14.660;2023-03-01T03:38:53;22.92;;;8.18;;
71914;SDS011;60387;49.994;14.660;2023-03-01T03:41:26;24.30;;;9.23;;
71914;SDS011;60387;49.994;14.660;2023-03-01T03:43:59;23.43;;;8.40;;
71914;SDS011;60387;49.994;14.660;2023-03-01T03:46:32;23.97;;;8.00;;
71914;SDS011;60387;49.994;14.660;2023-03-01T03:49:06;23.33;;;8.17;;
71914;SDS011;60387;49.994;14.660;2023-03-01T03:51:39;24.70;;;8.20;;
71914;SDS011;60387;49.994;14.660;2023-03-01T03:54:12;23.13;;;7.47;;
71914;SDS011;60387;49.994;14.660;2023-03-01T03:56:46;17.87;;;6.27;;
71914;SDS011;60387;49.994;14.660;2023-03-01T03:59:19;16.90;;;5.83;;
71914;SDS011;60387;49.994;14.660;2023-03-01T04:01:52;23.37;;;6.87;;
71914;SDS011;60387;49.994;14.660;2023-03-01T04:04:25;11.63;;;4.67;;
71914;SDS011;60387;49.994;14.660;2023-03-01T04:06:59;19.10;;;6.43;;
71914;SDS011;60387;49.994;14.660;2023-03-01T04:09:32;21.50;;;7.63;;
71914;SDS011;60387;49.994;14.660;2023-03-01T04:12:05;18.73;;;6.18;;
71914;SDS011;60387;49.994;14.660;2023-03-01T04:14:38;19.10;;;6.85;;
71914;SDS011;60387;49.994;14.660;2023-03-01T04:17:12;24.48;;;8.05;;
71914;SDS011;60387;49.994;14.660;2023-03-01T04:19:45;17.93;;;6.50;;
71914;SDS011;60387;49.994;14.660;2023-03-01T04:22:18;20.70;;;6.67;;
71914;SDS011;60387;49.994;14.660;2023-03-01T04:24:52;21.07;;;6.90;;
71914;SDS011;60387;49.994;14.660;2023-03-01T04:27:25;22.90;;;7.53;;
71914;SDS011;60387;49.994;14.660;2023-03-01T04:29:58;16.43;;;6.50;;
71914;SDS011;60387;49.994;14.660;2023-03-01T04:32:32;21.00;;;7.60;;
71914;SDS011;60387;49.994;14.660;2023-03-01T04:35:05;21.13;;;6.33;;
71914;SDS011;60387;49.994;14.660;2023-03-01T04:37:39;24.23;;;8.35;;
71914;SDS011;60387;49.994;14.660;2023-03-01T04:40:12;22.37;;;8.10;;
71914;SDS011;60387;49.994;14.660;2023-03-01T04:42:46;23.03;;;7.93;;
71914;SDS011;60387;49.994;14.660;2023-03-01T04:45:19;24.00;;;8.77;;
71914;SDS011;60387;49.994;14.660;2023-03-01T04:47:52;23.53;;;8.73;;
71914;SDS011;60387;49.994;14.660;2023-03-01T04:50:26;29.30;;;8.85;;
71914;SDS011;60387;49.994;14.660;2023-03-01T04:52:59;24.20;;;8.57;;
71914;SDS011;60387;49.994;14.660;2023-03-01T04:55:33;25.57;;;9.37;;
71914;SDS011;60387;49.994;14.660;2023-03-01T04:58:06;25.90;;;9.37;;
71914;SDS011;60387;49.994;14.660;2023-03-01T05:00:39;24.57;;;9.50;;
71914;SDS011;60387;49.994;14.660;2023-03-01T05:03:13;27.13;;;9.50;;
71914;SDS011;60387;49.994;14.660;2023-03-01T05:05:47;26.70;;;9.73;;
71914;SDS011;60387;49.994;14.660;2023-03-01T05:08:24;35.67;;;10.13;;
71914;SDS011;60387;49.994;14.660;2023-03-01T05:10:57;26.60;;;10.27;;
71914;SDS011;60387;49.994;14.660;2023-03-01T05:13:30;24.20;;;9.03;;
71914;SDS011;60387;49.994;14.660;2023-03-01T05:16:04;26.47;;;8.60;;
71914;SDS011;60387;49.994;14.660;2023-03-01T05:18:39;29.27;;;10.18;;
71914;SDS011;60387;49.994;14.660;2023-03-01T05:21:14;29.98;;;8.95;;
71914;SDS011;60387;49.994;14.660;2023-03-01T05:23:47;24.08;;;8.65;;
71914;SDS011;60387;49.994;14.660;2023-03-01T05:26:21;42.57;;;15.30;;
71914;SDS011;60387;49.994;14.660;2023-03-01T05:28:54;52.20;;;16.53;;
71914;SDS011;60387;49.994;14.660;2023-03-01T05:31:28;53.50;;;18.05;;
71914;SDS011;60387;49.994;14.660;2023-03-01T05:34:01;43.43;;;14.10;;
71914;SDS011;60387;49.994;14.660;2023-03-01T05:36:35;31.07;;;10.97;;
71914;SDS011;60387;49.994;14.660;2023-03-01T05:39:08;34.27;;;11.30;;
71914;SDS011;60387;49.994;14.660;2023-03-01T05:41:41;37.77;;;12.23;;
71914;SDS011;60387;49.994;14.660;2023-03-01T05:44:15;42.43;;;11.30;;
71914;SDS011;60387;49.994;14.660;2023-03-01T05:46:48;36.03;;;11.53;;
71914;SDS011;60387;49.994;14.660;2023-03-01T05:49:22;28.90;;;9.50;;
71914;SDS011;60387;49.994;14.660;2023-03-01T05:51:55;39.67;;;12.82;;
71914;SDS011;60387;49.994;14.660;2023-03-01T05:54:28;33.27;;;11.83;;
71914;SDS011;60387;49.994;14.660;2023-03-01T05:57:02;36.27;;;11.53;;
71914;SDS011;60387;49.994;14.660;2023-03-01T05:59:35;35.20;;;11.60;;
71914;SDS011;60387;49.994;14.660;2023-03-01T06:02:08;29.57;;;10.77;;
71914;SDS011;60387;49.994;14.660;2023-03-01T06:04:41;36.97;;;12.33;;
71914;SDS011;60387;49.994;14.660;2023-03-01T06:07:15;41.13;;;13.43;;
71914;SDS011;60387;49.994;14.660;2023-03-01T06:09:48;31.70;;;12.23;;
71914;SDS011;60387;49.994;14.660;2023-03-01T06:12:21;33.87;;;11.07;;
71914;SDS011;60387;49.994;14.660;2023-03-01T06:14:55;32.47;;;11.40;;
71914;SDS011;60387;49.994;14.660;2023-03-01T06:17:32;37.40;;;10.97;;
71914;SDS011;60387;49.994;14.660;2023-03-01T06:20:25;32.83;;;11.45;;
71914;SDS011;60387;49.994;14.660;2023-03-01T06:23:00;29.88;;;10.75;;
71914;SDS011;60387;49.994;14.660;2023-03-01T06:25:33;23.40;;;9.00;;
71914;SDS011;60387;49.994;14.660;2023-03-01T06:28:07;56.93;;;19.47;;
71914;SDS011;60387;49.994;14.660;2023-03-01T06:30:40;37.00;;;14.47;;
71914;SDS011;60387;49.994;14.660;2023-03-01T06:33:13;50.87;;;17.00;;
71914;SDS011;60387;49.994;14.660;2023-03-01T06:35:47;52.97;;;16.00;;
71914;SDS011;60387;49.994;14.660;2023-03-01T06:38:20;40.47;;;12.83;;
71914;SDS011;60387;49.994;14.660;2023-03-01T06:40:54;35.70;;;13.40;;
71914;SDS011;60387;49.994;14.660;2023-03-01T06:43:27;34.63;;;12.75;;
71914;SDS011;60387;49.994;14.660;2023-03-01T06:46:03;35.53;;;13.30;;
71914;SDS011;60387;49.994;14.660;2023-03-01T06:48:37;38.58;;;14.65;;
71914;SDS011;60387;49.994;14.660;2023-03-01T06:51:10;45.40;;;16.93;;
71914;SDS011;60387;49.994;14.660;2023-03-01T06:53:45;45.90;;;19.53;;
71914;SDS011;60387;49.994;14.660;2023-03-01T06:56:19;48.60;;;17.43;;
71914;SDS011;60387;49.994;14.660;2023-03-01T06:58:52;51.90;;;19.17;;
71914;SDS011;60387;49.994;14.660;2023-03-01T07:01:25;48.90;;;20.00;;
71914;SDS011;60387;49.994;14.660;2023-03-01T07:03:59;49.33;;;20.10;;
71914;SDS011;60387;49.994;14.660;2023-03-01T07:06:32;46.23;;;18.17;;
71914;SDS011;60387;49.994;14.660;2023-03-01T07:09:06;42.60;;;18.17;;
71914;SDS011;60387;49.994;14.660;2023-03-01T07:11:39;44.77;;;17.37;;
71914;SDS011;60387;49.994;14.660;2023-03-01T07:14:12;43.90;;;15.20;;
71914;SDS011;60387;49.994;14.660;2023-03-01T07:16:46;41.13;;;14.33;;
71914;SDS011;60387;49.994;14.660;2023-03-01T07:19:19;37.17;;;13.43;;
71914;SDS011;60387;49.994;14.660;2023-03-01T07:21:53;33.13;;;12.85;;
71914;SDS011;60387;49.994;14.660;2023-03-01T07:24:26;29.70;;;10.60;;
71914;SDS011;60387;49.994;14.660;2023-03-01T07:27:00;17.60;;;7.33;;
71914;SDS011;60387;49.994;14.660;2023-03-01T07:29:33;20.80;;;7.57;;
71914;SDS011;60387;49.994;14.660;2023-03-01T07:32:06;19.87;;;7.60;;
71914;SDS011;60387;49.994;14.660;2023-03-01T07:34:40;22.83;;;8.52;;
71914;SDS011;60387;49.994;14.660;2023-03-01T07:37:13;21.97;;;7.93;;
71914;SDS011;60387;49.994;14.660;2023-03-01T07:39:46;25.40;;;9.63;;
71914;SDS011;60387;49.994;14.660;2023-03-01T07:42:20;18.57;;;6.80;;
71914;SDS011;60387;49.994;14.660;2023-03-01T07:44:53;21.00;;;7.57;;
71914;SDS011;60387;49.994;14.660;2023-03-01T07:47:26;20.97;;;8.03;;
71914;SDS011;60387;49.994;14.660;2023-03-01T07:49:59;23.53;;;8.77;;
71914;SDS011;60387;49.994;14.660;2023-03-01T07:52:33;27.10;;;9.40;;
71914;SDS011;60387;49.994;14.660;2023-03-01T07:55:06;26.90;;;8.93;;
71914;SDS011;60387;49.994;14.660;2023-03-01T07:57:40;27.60;;;8.83;;
71914;SDS011;60387;49.994;14.660;2023-03-01T08:00:13;19.17;;;6.70;;
71914;SDS011;60387;49.994;14.660;2023-03-01T08:02:47;23.73;;;8.48;;
71914;SDS011;60387;49.994;14.660;2023-03-01T08:05:20;19.70;;;7.93;;
71914;SDS011;60387;49.994;14.660;2023-03-01T08:07:53;21.50;;;8.73;;
71914;SDS011;60387;49.994;14.660;2023-03-01T08:10:27;17.87;;;6.57;;
71914;SDS011;60387;49.994;14.660;2023-03-01T08:13:00;26.43;;;8.97;;
71914;SDS011;60387;49.994;14.660;2023-03-01T08:15:33;22.77;;;7.53;;
71914;SDS011;60387;49.994;14.660;2023-03-01T08:18:06;29.87;;;9.93;;
71914;SDS011;60387;49.994;14.660;2023-03-01T08:20:40;24.80;;;9.23;;
71914;SDS011;60387;49.994;14.660;2023-03-01T08:23:13;16.93;;;6.40;;
71914;SDS011;60387;49.994;14.660;2023-03-01T08:25:46;21.40;;;7.63;;
71914;SDS011;60387;49.994;14.660;2023-03-01T08:28:20;21.03;;;7.50;;
71914;SDS011;60387;49.994;14.660;2023-03-01T08:30:53;20.07;;;7.50;;
71914;SDS011;60387;49.994;14.660;2023-03-01T08:33:26;17.52;;;6.57;;
71914;SDS011;60387;49.994;14.660;2023-03-01T08:36:03;23.52;;;7.90;;
71914;SDS011;60387;49.994;14.660;2023-03-01T08:38:38;17.57;;;6.93;;
71914;SDS011;60387;49.994;14.660;2023-03-01T08:41:11;21.13;;;8.07;;
71914;SDS011;60387;49.994;14.660;2023-03-01T08:43:45;20.27;;;7.28;;
71914;SDS011;60387;49.994;14.660;2023-03-01T08:46:18;18.57;;;7.00;;
71914;SDS011;60387;49.994;14.660;2023-03-01T08:48:51;17.30;;;6.07;;
71914;SDS011;60387;49.994;14.660;2023-03-01T08:51:25;21.00;;;7.00;;
71914;SDS011;60387;49.994;14.660;2023-03-01T08:53:59;20.30;;;7.00;;
71914;SDS011;60387;49.994;14.660;2023-03-01T08:56:32;20.77;;;7.37;;
71914;SDS011;60387;49.994;14.660;2023-03-01T08:59:06;18.65;;;6.53;;
71914;SDS011;60387;49.994;14.660;2023-03-01T09:01:45;16.27;;;5.57;;
71914;SDS011;60387;49.994;14.660;2023-03-01T09:04:18;20.17;;;5.97;;
71914;SDS011;60387;49.994;14.660;2023-03-01T09:06:51;22.03;;;6.97;;
71914;SDS011;60387;49.994;14.660;2023-03-01T09:09:24;16.90;;;6.23;;
71914;SDS011;60387;49.994;14.660;2023-03-01T09:11:58;17.20;;;6.67;;
71914;SDS011;60387;49.994;14.660;2023-03-01T09:14:31;20.43;;;7.47;;
71914;SDS011;60387;49.994;14.660;2023-03-01T09:17:04;19.20;;;7.33;;
71914;SDS011;60387;49.994;14.660;2023-03-01T09:19:38;17.57;;;7.10;;
71914;SDS011;60387;49.994;14.660;2023-03-01T09:22:11;17.97;;;6.60;;
71914;SDS011;60387;49.994;14.660;2023-03-01T09:24:44;20.07;;;6.87;;
71914;SDS011;60387;49.994;14.660;2023-03-01T09:27:18;17.90;;;6.07;;
71914;SDS011;60387;49.994;14.660;2023-03-01T09:29:51;18.43;;;7.60;;
71914;SDS011;60387;49.994;14.660;2023-03-01T09:32:24;18.23;;;6.93;;
71914;SDS011;60387;49.994;14.660;2023-03-01T09:34:58;17.15;;;6.95;;
71914;SDS011;60387;49.994;14.660;2023-03-01T09:37:32;15.88;;;5.93;;
71914;SDS011;60387;49.994;14.660;2023-03-01T09:40:08;17.27;;;6.70;;
71914;SDS011;60387;49.994;14.660;2023-03-01T09:42:57;17.70;;;6.55;;
71914;SDS011;60387;49.994;14.660;2023-03-01T09:45:40;14.13;;;5.03;;
71914;SDS011;60387;49.994;14.660;2023-03-01T09:48:18;16.42;;;6.90;;
71914;SDS011;60387;49.994;14.660;2023-03-01T09:50:54;16.27;;;5.65;;
71914;SDS011;60387;49.994;14.660;2023-03-01T09:53:32;14.20;;;5.70;;
71914;SDS011;60387;49.994;14.660;2023-03-01T09:56:17;17.92;;;6.50;;
71914;SDS011;60387;49.994;14.660;2023-03-01T09:58:58;14.10;;;4.72;;
71914;SDS011;60387;49.994;14.660;2023-03-01T10:02:00;10.95;;;4.65;;
71914;SDS011;60387;49.994;14.660;2023-03-01T10:04:47;14.80;;;5.63;;
71914;SDS011;60387;49.994;14.660;2023-03-01T10:10:37;14.68;;;4.97;;
71914;SDS011;60387;49.994;14.660;2023-03-01T10:16:28;13.85;;;5.20;;
71914;SDS011;60387;49.994;14.660;2023-03-01T10:19:08;15.60;;;5.72;;
71914;SDS011;60387;49.994;14.660;2023-03-01T10:21:46;15.40;;;5.97;;
71914;SDS011;60387;49.994;14.660;2023-03-01T10:24:23;16.80;;;5.88;;
71914;SDS011;60387;49.994;14.660;2023-03-01T10:26:57;22.23;;;6.77;;
71914;SDS011;60387;49.994;14.660;2023-03-01T10:32:51;15.93;;;5.97;;
71914;SDS011;60387;49.994;14.660;2023-03-01T10:35:28;15.63;;;5.93;;
71914;SDS011;60387;49.994;14.660;2023-03-01T10:38:07;15.85;;;5.72;;
71914;SDS011;60387;49.994;14.660;2023-03-01T10:43:30;16.48;;;6.47;;
71914;SDS011;60387;49.994;14.660;2023-03-01T10:51:48;16.63;;;6.40;;
71914;SDS011;60387;49.994;14.660;2023-03-01T10:54:30;17.27;;;6.97;;
71914;SDS011;60387;49.994;14.660;2023-03-01T10:57:10;18.77;;;6.90;;
71914;SDS011;60387;49.994;14.660;2023-03-01T11:05:30;20.90;;;7.47;;
71914;SDS011;60387;49.994;14.660;2023-03-01T11:08:03;19.37;;;6.17;;
71914;SDS011;60387;49.994;14.660;2023-03-01T11:10:37;20.97;;;7.50;;
71914;SDS011;60387;49.994;14.660;2023-03-01T11:13:17;19.27;;;7.97;;
71914;SDS011;60387;49.994;14.660;2023-03-01T11:15:59;21.42;;;7.88;;
71914;SDS011;60387;49.994;14.660;2023-03-01T11:18:33;20.35;;;8.93;;
71914;SDS011;60387;49.994;14.660;2023-03-01T11:21:06;21.40;;;7.43;;
71914;SDS011;60387;49.994;14.660;2023-03-01T11:23:40;18.07;;;6.33;;
71914;SDS011;60387;49.994;14.660;2023-03-01T11:26:16;17.73;;;6.88;;
71914;SDS011;60387;49.994;14.660;2023-03-01T11:28:51;18.83;;;7.47;;
71914;SDS011;60387;49.994;14.660;2023-03-01T11:31:29;19.20;;;7.60;;
71914;SDS011;60387;49.994;14.660;2023-03-01T11:34:11;18.90;;;7.38;;
71914;SDS011;60387;49.994;14.660;2023-03-01T11:36:52;19.60;;;7.00;;
71914;SDS011;60387;49.994;14.660;2023-03-01T11:39:37;21.08;;;8.15;;
71914;SDS011;60387;49.994;14.660;2023-03-01T11:42:15;17.35;;;7.20;;
71914;SDS011;60387;49.994;14.660;2023-03-01T11:44:54;19.37;;;7.47;;
71914;SDS011;60387;49.994;14.660;2023-03-01T11:47:42;18.98;;;6.10;;
71914;SDS011;60387;49.994;14.660;2023-03-01T11:50:33;18.90;;;6.22;;
71914;SDS011;60387;49.994;14.660;2023-03-01T12:10:28;19.83;;;7.53;;
71914;SDS011;60387;49.994;14.660;2023-03-01T12:27:29;19.57;;;8.13;;
71914;SDS011;60387;49.994;14.660;2023-03-01T12:41:59;14.30;;;6.30;;
71914;SDS011;60387;49.994;14.660;2023-03-01T12:51:02;20.52;;;7.25;;
71914;SDS011;60387;49.994;14.660;2023-03-01T12:53:43;16.30;;;5.90;;
71914;SDS011;60387;49.994;14.660;2023-03-01T12:56:24;17.50;;;6.88;;
71914;SDS011;60387;49.994;14.660;2023-03-01T13:02:26;15.63;;;6.22;;
71914;SDS011;60387;49.994;14.660;2023-03-01T13:05:29;15.40;;;6.18;;
71914;SDS011;60387;49.994;14.660;2023-03-01T13:11:06;17.85;;;5.72;;
71914;SDS011;60387;49.994;14.660;2023-03-01T13:13:48;16.60;;;5.20;;
71914;SDS011;60387;49.994;14.660;2023-03-01T13:19:12;17.10;;;6.88;;
71914;SDS011;60387;49.994;14.660;2023-03-01T13:21:51;20.90;;;7.53;;
71914;SDS011;60387;49.994;14.660;2023-03-01T13:30:38;15.10;;;6.03;;
71914;SDS011;60387;49.994;14.660;2023-03-01T13:36:00;18.27;;;6.77;;
71914;SDS011;60387;49.994;14.660;2023-03-01T13:46:52;14.85;;;5.78;;
71914;SDS011;60387;49.994;14.660;2023-03-01T13:49:41;14.53;;;5.87;;
71914;SDS011;60387;49.994;14.660;2023-03-01T13:57:49;13.00;;;5.65;;
71914;SDS011;60387;49.994;14.660;2023-03-01T14:00:36;14.63;;;5.90;;
71914;SDS011;60387;49.994;14.660;2023-03-01T14:03:12;15.03;;;5.00;;
71914;SDS011;60387;49.994;14.660;2023-03-01T14:08:46;13.80;;;5.13;;
71914;SDS011;60387;49.994;14.660;2023-03-01T14:19:26;16.87;;;6.43;;
71914;SDS011;60387;49.994;14.660;2023-03-01T14:22:10;13.05;;;5.22;;
71914;SDS011;60387;49.994;14.660;2023-03-01T14:24:58;15.93;;;5.65;;
71914;SDS011;60387;49.994;14.660;2023-03-01T14:27:36;12.60;;;4.45;;
71914;SDS011;60387;49.994;14.660;2023-03-01T14:30:22;16.85;;;5.40;;
71914;SDS011;60387;49.994;14.660;2023-03-01T14:33:00;13.90;;;5.00;;
71914;SDS011;60387;49.994;14.660;2023-03-01T14:35:36;15.20;;;4.97;;
71914;SDS011;60387;49.994;14.660;2023-03-01T14:38:19;10.30;;;3.35;;
71914;SDS011;60387;49.994;14.660;2023-03-01T14:40:54;11.73;;;3.93;;
71914;SDS011;60387;49.994;14.660;2023-03-01T14:43:31;15.00;;;5.13;;
71914;SDS011;60387;49.994;14.660;2023-03-01T14:46:04;13.65;;;4.15;;
71914;SDS011;60387;49.994;14.660;2023-03-01T14:48:37;14.52;;;5.10;;
71914;SDS011;60387;49.994;14.660;2023-03-01T14:51:11;15.03;;;5.53;;
71914;SDS011;60387;49.994;14.660;2023-03-01T14:53:45;15.77;;;5.40;;
71914;SDS011;60387;49.994;14.660;2023-03-01T14:56:18;15.18;;;5.95;;
71914;SDS011;60387;49.994;14.660;2023-03-01T14:58:52;13.20;;;4.53;;
71914;SDS011;60387;49.994;14.660;2023-03-01T15:01:30;16.52;;;6.22;;
71914;SDS011;60387;49.994;14.660;2023-03-01T15:04:03;14.13;;;5.33;;
71914;SDS011;60387;49.994;14.660;2023-03-01T15:06:38;13.07;;;4.97;;
71914;SDS011;60387;49.994;14.660;2023-03-01T15:09:15;15.80;;;6.00;;
71914;SDS011;60387;49.994;14.660;2023-03-01T15:11:49;14.32;;;5.88;;
71914;SDS011;60387;49.994;14.660;2023-03-01T15:14:38;17.17;;;6.10;;
71914;SDS011;60387;49.994;14.660;2023-03-01T15:17:20;15.85;;;5.68;;
71914;SDS011;60387;49.994;14.660;2023-03-01T15:19:59;15.43;;;5.20;;
71914;SDS011;60387;49.994;14.660;2023-03-01T15:22:34;15.32;;;5.40;;
71914;SDS011;60387;49.994;14.660;2023-03-01T15:25:13;14.07;;;5.33;;
71914;SDS011;60387;49.994;14.660;2023-03-01T15:27:49;17.67;;;5.90;;
71914;SDS011;60387;49.994;14.660;2023-03-01T15:30:26;16.88;;;6.57;;
71914;SDS011;60387;49.994;14.660;2023-03-01T15:33:20;18.33;;;5.68;;
71914;SDS011;60387;49.994;14.660;2023-03-01T15:35:54;12.90;;;5.10;;
71914;SDS011;60387;49.994;14.660;2023-03-01T15:41:21;14.90;;;5.43;;
71914;SDS011;60387;49.994;14.660;2023-03-01T15:43:55;16.73;;;6.20;;
71914;SDS011;60387;49.994;14.660;2023-03-01T15:46:29;17.40;;;6.30;;
71914;SDS011;60387;49.994;14.660;2023-03-01T15:52:12;19.53;;;6.13;;
71914;SDS011;60387;49.994;14.660;2023-03-01T15:54:59;16.30;;;6.50;;
71914;SDS011;60387;49.994;14.660;2023-03-01T15:57:34;19.77;;;7.10;;
71914;SDS011;60387;49.994;14.660;2023-03-01T16:00:11;24.27;;;6.87;;
71914;SDS011;60387;49.994;14.660;2023-03-01T16:02:45;20.70;;;7.80;;
71914;SDS011;60387;49.994;14.660;2023-03-01T16:07:54;18.50;;;6.65;;
71914;SDS011;60387;49.994;14.660;2023-03-01T16:10:27;22.53;;;7.83;;
71914;SDS011;60387;49.994;14.660;2023-03-01T16:13:01;25.67;;;8.02;;
71914;SDS011;60387;49.994;14.660;2023-03-01T16:15:35;22.17;;;7.00;;
71914;SDS011;60387;49.994;14.660;2023-03-01T16:18:08;20.37;;;6.97;;
71914;SDS011;60387;49.994;14.660;2023-03-01T16:20:41;21.30;;;7.00;;
71914;SDS011;60387;49.994;14.660;2023-03-01T16:23:15;22.37;;;7.10;;
71914;SDS011;60387;49.994;14.660;2023-03-01T16:25:48;18.50;;;6.87;;
71914;SDS011;60387;49.994;14.660;2023-03-01T16:28:21;21.10;;;7.43;;
71914;SDS011;60387;49.994;14.660;2023-03-01T16:30:54;14.77;;;5.10;;
71914;SDS011;60387;49.994;14.660;2023-03-01T16:33:28;19.60;;;7.27;;
71914;SDS011;60387;49.994;14.660;2023-03-01T16:36:08;18.63;;;6.70;;
71914;SDS011;60387;49.994;14.660;2023-03-01T16:38:43;17.27;;;5.72;;
71914;SDS011;60387;49.994;14.660;2023-03-01T16:41:17;18.43;;;7.00;;
71914;SDS011;60387;49.994;14.660;2023-03-01T16:43:52;22.85;;;8.00;;
71914;SDS011;60387;49.994;14.660;2023-03-01T16:46:26;38.73;;;14.57;;
71914;SDS011;60387;49.994;14.660;2023-03-01T16:49:01;30.83;;;11.63;;
71914;SDS011;60387;49.994;14.660;2023-03-01T16:51:34;51.87;;;14.93;;
71914;SDS011;60387;49.994;14.660;2023-03-01T16:54:08;48.03;;;13.53;;
71914;SDS011;60387;49.994;14.660;2023-03-01T16:56:42;71.53;;;18.70;;
71914;SDS011;60387;49.994;14.660;2023-03-01T16:59:15;49.33;;;13.97;;
71914;SDS011;60387;49.994;14.660;2023-03-01T17:01:49;24.50;;;8.00;;
71914;SDS011;60387;49.994;14.660;2023-03-01T17:04:22;20.67;;;7.07;;
71914;SDS011;60387;49.994;14.660;2023-03-01T17:06:55;22.60;;;7.53;;
71914;SDS011;60387;49.994;14.660;2023-03-01T17:09:29;20.17;;;7.43;;
71914;SDS011;60387;49.994;14.660;2023-03-01T17:12:03;19.30;;;6.93;;
71914;SDS011;60387;49.994;14.660;2023-03-01T17:14:37;18.42;;;5.97;;
71914;SDS011;60387;49.994;14.660;2023-03-01T17:17:10;18.20;;;6.83;;
71914;SDS011;60387;49.994;14.660;2023-03-01T17:19:44;20.30;;;7.83;;